sensor_id;sensor_type;location;lat;lon;timestamp;pressure;altitude;pressure_sealevel;temperature;humidity
19023;BME280;35226;48.606;8.858;2023-02-28T00:00:32;96814.94;;;-3.23;100.00
19023;BME280;35226;48.606;8.858;2023-02-28T00:02:58;96819.47;;;-3.27;100.00
19023;BME280;35226;48.606;8.858;2023-02-28T00:05:27;96821.72;;;-3.29;100.00
19023;BME280;35226;48.606;8.858;2023-02-28T00:07:54;96825.09;;;-3.32;100.00
19023;BME280;35226;48.606;8.858;2023-02-28T00:10:25;96821.28;;;-3.31;100.00
19023;BME280;35226;48.606;8.858;2023-02-28T00:12:53;96818.81;;;-3.36;100.00
19023;BME280;35226;48.606;8.858;2023-02-28T00:15:20;96814.53;;;-3.37;100.00
19023;BME280;35226;48.606;8.858;2023-02-28T00:17:46;96817.69;;;-3.35;100.00
19023;BME280;35226;48.606;8.858;2023-02-28T00:20:13;96812.97;;;-3.38;100.00
19023;BME280;35226;48.606;8.858;2023-02-28T00:22:41;96815.53;;;-3.42;100.00
19023;BME280;35226;48.606;8.858;2023-02-28T00:25:09;96817.56;;;-3.39;100.00
19023;BME280;35226;48.606;8.858;2023-02-28T00:27:39;96811.84;;;-3.37;100.00
19023;BME280;35226;48.606;8.858;2023-02-28T00:30:09;96813.09;;;-3.47;100.00
19023;BME280;35226;48.606;8.858;2023-02-28T00:32:36;96810.72;;;-3.48;100.00
19023;BME280;35226;48.606;8.858;2023-02-28T00:35:02;96805.44;;;-3.57;100.00
19023;BME280;35226;48.606;8.858;2023-02-28T00:37:28;96809.28;;;-3.58;100.00
19023;BME280;35226;48.606;8.858;2023-02-28T00:39:53;96811.53;;;-3.60;100.00
19023;BME280;35226;48.606;8.858;2023-02-28T00:42:19;96813.34;;;-3.64;100.00
19023;BME280;35226;48.606;8.858;2023-02-28T00:44:46;96814.47;;;-3.65;100.00
19023;BME280;35226;48.606;8.858;2023-02-28T00:47:12;96808.50;;;-3.70;100.00
19023;BME280;35226;48.606;8.858;2023-02-28T00:49:38;96812.69;;;-3.73;100.00
19023;BME280;35226;48.606;8.858;2023-02-28T00:52:03;96802.22;;;-3.75;100.00
19023;BME280;35226;48.606;8.858;2023-02-28T00:54:29;96806.69;;;-3.79;100.00
19023;BME280;35226;48.606;8.858;2023-02-28T00:56:55;96795.91;;;-3.79;100.00
19023;BME280;35226;48.606;8.858;2023-02-28T00:59:20;96802.31;;;-3.83;100.00
19023;BME280;35226;48.606;8.858;2023-02-28T01:01:47;96803.44;;;-3.84;100.00
19023;BME280;35226;48.606;8.858;2023-02-28T01:04:14;96806.81;;;-3.87;100.00
19023;BME280;35226;48.606;8.858;2023-02-28T01:06:40;96802.53;;;-3.88;100.00
19023;BME280;35226;48.606;8.858;2023-02-28T01:09:07;96803.19;;;-3.91;100.00
19023;BME280;35226;48.606;8.858;2023-02-28T01:11:33;96803.09;;;-3.95;100.00
19023;BME280;35226;48.606;8.858;2023-02-28T01:14:00;96789.63;;;-3.95;100.00
19023;BME280;35226;48.606;8.858;2023-02-28T01:16:25;96795.22;;;-4.00;100.00
19023;BME280;35226;48.606;8.858;2023-02-28T01:18:51;96798.25;;;-4.01;100.00
19023;BME280;35226;48.606;8.858;2023-02-28T01:21:21;96792.75;;;-4.05;100.00
19023;BME280;35226;48.606;8.858;2023-02-28T01:23:47;96795.91;;;-4.03;100.00
19023;BME280;35226;48.606;8.858;2023-02-28T01:26:31;96795.78;;;-4.06;100.00
19023;BME280;35226;48.606;8.858;2023-02-28T01:28:57;96796.03;;;-4.12;100.00
19023;BME280;35226;48.606;8.858;2023-02-28T01:31:25;96799.06;;;-4.13;100.00
19023;BME280;35226;48.606;8.858;2023-02-28T01:33:51;96788.59;;;-4.15;100.00
19023;BME280;35226;48.606;8.858;2023-02-28T01:36:21;96795.13;;;-4.16;100.00
19023;BME280;35226;48.606;8.858;2023-02-28T01:38:48;96786.22;;;-4.16;100.00
19023;BME280;35226;48.606;8.858;2023-02-28T01:41:34;96786.56;;;-4.18;100.00
19023;BME280;35226;48.606;8.858;2023-02-28T01:44:05;96786.91;;;-4.19;100.00
19023;BME280;35226;48.606;8.858;2023-02-28T01:46:34;96786.09;;;-4.20;100.00
19023;BME280;35226;48.606;8.858;2023-02-28T01:51:32;96783.31;;;-4.23;100.00
19023;BME280;35226;48.606;8.858;2023-02-28T01:54:03;96776.00;;;-4.23;100.00
19023;BME280;35226;48.606;8.858;2023-02-28T01:56:33;96778.72;;;-4.23;100.00
19023;BME280;35226;48.606;8.858;2023-02-28T01:59:01;96777.13;;;-4.24;100.00
19023;BME280;35226;48.606;8.858;2023-02-28T02:01:28;96781.06;;;-4.21;100.00
19023;BME280;35226;48.606;8.858;2023-02-28T02:04:01;96774.44;;;-4.24;100.00
19023;BME280;35226;48.606;8.858;2023-02-28T02:06:38;96774.75;;;-4.25;100.00
19023;BME280;35226;48.606;8.858;2023-02-28T02:09:09;96770.03;;;-4.28;100.00
19023;BME280;35226;48.606;8.858;2023-02-28T02:11:35;96774.53;;;-4.32;100.00
19023;BME280;35226;48.606;8.858;2023-02-28T02:14:18;96772.72;;;-4.28;100.00
19023;BME280;35226;48.606;8.858;2023-02-28T02:17:04;96768.44;;;-4.29;100.00
19023;BME280;35226;48.606;8.858;2023-02-28T02:22:21;96767.25;;;-4.32;100.00
19023;BME280;35226;48.606;8.858;2023-02-28T02:39:06;96761.38;;;-4.34;100.00
19023;BME280;35226;48.606;8.858;2023-02-28T02:41:41;96761.72;;;-4.35;100.00
19023;BME280;35226;48.606;8.858;2023-02-28T02:44:21;96764.75;;;-4.37;100.00
19023;BME280;35226;48.606;8.858;2023-02-28T02:46:51;96763.16;;;-4.38;100.00
19023;BME280;35226;48.606;8.858;2023-02-28T02:49:30;96763.94;;;-4.37;100.00
19023;BME280;35226;48.606;8.858;2023-02-28T02:52:02;96754.63;;;-4.40;100.00
19023;BME280;35226;48.606;8.858;2023-02-28T02:54:38;96766.19;;;-4.39;100.00
19023;BME280;35226;48.606;8.858;2023-02-28T02:57:10;96772.03;;;-4.37;100.00
19023;BME280;35226;48.606;8.858;2023-02-28T02:59:39;96760.47;;;-4.38;100.00
19023;BME280;35226;48.606;8.858;2023-02-28T03:02:09;96760.47;;;-4.38;100.00
19023;BME280;35226;48.606;8.858;2023-02-28T03:04:42;96765.19;;;-4.35;100.00
19023;BME280;35226;48.606;8.858;2023-02-28T03:07:08;96766.00;;;-4.34;100.00
19023;BME280;35226;48.606;8.858;2023-02-28T03:09:34;96768.03;;;-4.31;100.00
19023;BME280;35226;48.606;8.858;2023-02-28T03:12:09;96773.75;;;-4.33;100.00
19023;BME280;35226;48.606;8.858;2023-02-28T03:14:56;96764.63;;;-4.28;100.00
19023;BME280;35226;48.606;8.858;2023-02-28T03:20:27;96761.59;;;-4.27;100.00
19023;BME280;35226;48.606;8.858;2023-02-28T03:23:12;96758.25;;;-4.24;100.00
19023;BME280;35226;48.606;8.858;2023-02-28T03:25:52;96759.69;;;-4.26;100.00
19023;BME280;35226;48.606;8.858;2023-02-28T03:28:32;96755.44;;;-4.27;100.00
19023;BME280;35226;48.606;8.858;2023-02-28T03:33:58;96764.75;;;-4.25;100.00
19023;BME280;35226;48.606;8.858;2023-02-28T03:36:35;96757.13;;;-4.23;100.00
19023;BME280;35226;48.606;8.858;2023-02-28T03:39:13;96762.94;;;-4.21;100.00
19023;BME280;35226;48.606;8.858;2023-02-28T03:41:45;96764.88;;;-4.21;100.00
19023;BME280;35226;48.606;8.858;2023-02-28T03:44:25;96758.00;;;-4.19;100.00
19023;BME280;35226;48.606;8.858;2023-02-28T03:47:00;96754.09;;;-4.21;100.00
19023;BME280;35226;48.606;8.858;2023-02-28T03:49:33;96753.84;;;-4.16;100.00
19023;BME280;35226;48.606;8.858;2023-02-28T03:52:02;96755.75;;;-4.17;100.00
19023;BME280;35226;48.606;8.858;2023-02-28T03:54:32;96756.22;;;-4.15;100.00
19023;BME280;35226;48.606;8.858;2023-02-28T03:57:08;96756.31;;;-4.11;100.00
19023;BME280;35226;48.606;8.858;2023-02-28T03:59:47;96752.50;;;-4.10;100.00
19023;BME280;35226;48.606;8.858;2023-02-28T04:02:13;96758.34;;;-4.08;100.00
19023;BME280;35226;48.606;8.858;2023-02-28T04:04:38;96764.09;;;-4.10;100.00
19023;BME280;35226;48.606;8.858;2023-02-28T04:07:11;96762.75;;;-4.03;100.00
19023;BME280;35226;48.606;8.858;2023-02-28T04:09:37;96761.97;;;-4.04;100.00
19023;BME280;35226;48.606;8.858;2023-02-28T04:12:03;96762.06;;;-4.00;100.00
19023;BME280;35226;48.606;8.858;2023-02-28T04:14:29;96762.84;;;-4.00;100.00
19023;BME280;35226;48.606;8.858;2023-02-28T04:16:54;96760.72;;;-3.94;100.00
19023;BME280;35226;48.606;8.858;2023-02-28T04:19:20;96762.63;;;-3.95;100.00
19023;BME280;35226;48.606;8.858;2023-02-28T04:21:48;96758.13;;;-3.91;100.00
19023;BME280;35226;48.606;8.858;2023-02-28T04:24:21;96755.41;;;-3.91;100.00
19023;BME280;35226;48.606;8.858;2023-02-28T04:26:50;96761.97;;;-3.92;100.00
19023;BME280;35226;48.606;8.858;2023-02-28T04:31:47;96767.25;;;-3.83;100.00
19023;BME280;35226;48.606;8.858;2023-02-28T04:34:12;96756.53;;;-3.80;100.00
19023;BME280;35226;48.606;8.858;2023-02-28T04:36:38;96754.63;;;-3.79;100.00
19023;BME280;35226;48.606;8.858;2023-02-28T04:39:04;96758.91;;;-3.78;100.00
19023;BME280;35226;48.606;8.858;2023-02-28T04:41:30;96759.81;;;-3.74;100.00
19023;BME280;35226;48.606;8.858;2023-02-28T04:43:55;96756.78;;;-3.72;100.00
19023;BME280;35226;48.606;8.858;2023-02-28T04:46:21;96759.47;;;-3.72;100.00
19023;BME280;35226;48.606;8.858;2023-02-28T04:48:47;96757.44;;;-3.76;100.00
19023;BME280;35226;48.606;8.858;2023-02-28T04:51:14;96757.09;;;-3.74;100.00
19023;BME280;35226;48.606;8.858;2023-02-28T04:53:41;96757.19;;;-3.70;100.00
19023;BME280;35226;48.606;8.858;2023-02-28T04:56:10;96761.47;;;-3.69;100.00
19023;BME280;35226;48.606;8.858;2023-02-28T04:58:36;96758.44;;;-3.68;100.00
19023;BME280;35226;48.606;8.858;2023-02-28T05:01:04;96756.97;;;-3.65;100.00
19023;BME280;35226;48.606;8.858;2023-02-28T05:03:41;96763.16;;;-3.65;100.00
19023;BME280;35226;48.606;8.858;2023-02-28T05:06:08;96762.47;;;-3.62;100.00
19023;BME280;35226;48.606;8.858;2023-02-28T05:08:34;96767.09;;;-3.62;100.00
19023;BME280;35226;48.606;8.858;2023-02-28T05:11:03;96762.47;;;-3.62;100.00
19023;BME280;35226;48.606;8.858;2023-02-28T05:13:29;96777.53;;;-3.61;100.00
19023;BME280;35226;48.606;8.858;2023-02-28T05:15:55;96771.13;;;-3.56;100.00
19023;BME280;35226;48.606;8.858;2023-02-28T05:18:21;96768.22;;;-3.63;100.00
19023;BME280;35226;48.606;8.858;2023-02-28T05:20:47;96771.13;;;-3.56;100.00
19023;BME280;35226;48.606;8.858;2023-02-28T05:23:13;96776.66;;;-3.53;100.00
19023;BME280;35226;48.606;8.858;2023-02-28T05:25:40;96775.41;;;-3.55;100.00
19023;BME280;35226;48.606;8.858;2023-02-28T05:28:06;96778.19;;;-3.52;100.00
19023;BME280;35226;48.606;8.858;2023-02-28T05:30:32;96775.06;;;-3.54;100.00
19023;BME280;35226;48.606;8.858;2023-02-28T05:32:58;96775.88;;;-3.53;100.00
19023;BME280;35226;48.606;8.858;2023-02-28T05:35:24;96775.16;;;-3.50;100.00
19023;BME280;35226;48.606;8.858;2023-02-28T05:37:50;96773.25;;;-3.50;100.00
19023;BME280;35226;48.606;8.858;2023-02-28T05:40:16;96772.31;;;-3.42;100.00
19023;BME280;35226;48.606;8.858;2023-02-28T05:42:42;96771.44;;;-3.46;100.00
19023;BME280;35226;48.606;8.858;2023-02-28T05:45:08;96771.44;;;-3.46;100.00
19023;BME280;35226;48.606;8.858;2023-02-28T05:47:34;96768.19;;;-3.51;100.00
19023;BME280;35226;48.606;8.858;2023-02-28T05:50:00;96768.31;;;-3.48;100.00
19023;BME280;35226;48.606;8.858;2023-02-28T05:52:26;96766.72;;;-3.49;100.00
19023;BME280;35226;48.606;8.858;2023-02-28T05:54:52;96768.75;;;-3.46;100.00
19023;BME280;35226;48.606;8.858;2023-02-28T05:57:18;96760.53;;;-3.49;100.00
19023;BME280;35226;48.606;8.858;2023-02-28T05:59:44;96770.47;;;-3.53;100.00
19023;BME280;35226;48.606;8.858;2023-02-28T06:02:15;96775.28;;;-3.47;100.00
19023;BME280;35226;48.606;8.858;2023-02-28T06:04:41;96768.31;;;-3.48;100.00
19023;BME280;35226;48.606;8.858;2023-02-28T06:07:08;96782.59;;;-3.47;100.00
19023;BME280;35226;48.606;8.858;2023-02-28T06:09:33;96783.03;;;-3.45;100.00
19023;BME280;35226;48.606;8.858;2023-02-28T06:12:00;96781.13;;;-3.45;100.00
19023;BME280;35226;48.606;8.858;2023-02-28T06:14:28;96779.09;;;-3.48;100.00
19023;BME280;35226;48.606;8.858;2023-02-28T06:16:53;96779.63;;;-3.42;100.00
19023;BME280;35226;48.606;8.858;2023-02-28T06:19:19;96788.78;;;-3.47;100.00
19023;BME280;35226;48.606;8.858;2023-02-28T06:21:44;96796.88;;;-3.47;100.00
19023;BME280;35226;48.606;8.858;2023-02-28T06:24:10;96801.16;;;-3.46;100.00
19023;BME280;35226;48.606;8.858;2023-02-28T06:26:36;96802.41;;;-3.43;100.00
19023;BME280;35226;48.606;8.858;2023-02-28T06:29:02;96802.03;;;-3.42;100.00
19023;BME280;35226;48.606;8.858;2023-02-28T06:31:28;96807.00;;;-3.44;100.00
19023;BME280;35226;48.606;8.858;2023-02-28T06:33:54;96796.56;;;-3.45;100.00
19023;BME280;35226;48.606;8.858;2023-02-28T06:36:21;96800.56;;;-3.39;100.00
19023;BME280;35226;48.606;8.858;2023-02-28T06:38:46;96808.34;;;-3.38;100.00
19023;BME280;35226;48.606;8.858;2023-02-28T06:41:17;96803.72;;;-3.37;100.00
19023;BME280;35226;48.606;8.858;2023-02-28T06:43:42;96811.84;;;-3.37;100.00
19023;BME280;35226;48.606;8.858;2023-02-28T06:46:11;96812.75;;;-3.33;100.00
19023;BME280;35226;48.606;8.858;2023-02-28T06:48:37;96811.06;;;-3.38;100.00
19023;BME280;35226;48.606;8.858;2023-02-28T06:51:11;96816.91;;;-3.36;100.00
19023;BME280;35226;48.606;8.858;2023-02-28T06:53:38;96816.19;;;-3.32;100.00
19023;BME280;35226;48.606;8.858;2023-02-28T06:56:09;96812.03;;;-3.30;100.00
19023;BME280;35226;48.606;8.858;2023-02-28T06:58:35;96814.53;;;-3.25;100.00
19023;BME280;35226;48.606;8.858;2023-02-28T07:01:01;96814.53;;;-3.25;100.00
19023;BME280;35226;48.606;8.858;2023-02-28T07:03:27;96817.22;;;-3.25;100.00
19023;BME280;35226;48.606;8.858;2023-02-28T07:05:52;96828.44;;;-3.23;100.00
19023;BME280;35226;48.606;8.858;2023-02-28T07:08:18;96821.91;;;-3.22;100.00
19023;BME280;35226;48.606;8.858;2023-02-28T07:10:43;96816.97;;;-3.20;100.00
19023;BME280;35226;48.606;8.858;2023-02-28T07:13:10;96822.16;;;-3.15;100.00
19023;BME280;35226;48.606;8.858;2023-02-28T07:15:36;96820.66;;;-3.12;100.00
19023;BME280;35226;48.606;8.858;2023-02-28T07:18:02;96822.50;;;-3.16;100.00
19023;BME280;35226;48.606;8.858;2023-02-28T07:20:29;96822.34;;;-3.08;100.00
19023;BME280;35226;48.606;8.858;2023-02-28T07:22:55;96825.38;;;-3.09;100.00
19023;BME280;35226;48.606;8.858;2023-02-28T07:25:28;96832.56;;;-3.01;100.00
19023;BME280;35226;48.606;8.858;2023-02-28T07:27:55;96832.34;;;-2.96;100.00
19023;BME280;35226;48.606;8.858;2023-02-28T07:30:21;96832.53;;;-2.89;100.00
19023;BME280;35226;48.606;8.858;2023-02-28T07:32:46;96827.13;;;-2.89;100.00
19023;BME280;35226;48.606;8.858;2023-02-28T07:35:12;96823.97;;;-2.91;100.00
19023;BME280;35226;48.606;8.858;2023-02-28T07:37:41;96823.31;;;-2.88;100.00
19023;BME280;35226;48.606;8.858;2023-02-28T07:40:10;96820.25;;;-2.86;100.00
19023;BME280;35226;48.606;8.858;2023-02-28T07:42:40;96819.66;;;-2.80;100.00
19023;BME280;35226;48.606;8.858;2023-02-28T07:45:07;96819.06;;;-2.73;100.00
19023;BME280;35226;48.606;8.858;2023-02-28T07:47:34;96826.84;;;-2.72;100.00
19023;BME280;35226;48.606;8.858;2023-02-28T07:49:59;96831.13;;;-2.71;100.00
19023;BME280;35226;48.606;8.858;2023-02-28T07:52:25;96833.81;;;-2.71;100.00
19023;BME280;35226;48.606;8.858;2023-02-28T07:54:51;96836.19;;;-2.69;100.00
19023;BME280;35226;48.606;8.858;2023-02-28T07:57:17;96837.88;;;-2.65;100.00
19023;BME280;35226;48.606;8.858;2023-02-28T07:59:43;96837.09;;;-2.65;100.00
19023;BME280;35226;48.606;8.858;2023-02-28T08:02:16;96838.22;;;-2.66;100.00
19023;BME280;35226;48.606;8.858;2023-02-28T08:04:42;96835.25;;;-2.61;100.00
19023;BME280;35226;48.606;8.858;2023-02-28T08:07:08;96836.03;;;-2.61;100.00
19023;BME280;35226;48.606;8.858;2023-02-28T08:09:35;96842.50;;;-2.65;100.00
19023;BME280;35226;48.606;8.858;2023-02-28T08:12:03;96839.53;;;-2.60;100.00
19023;BME280;35226;48.606;8.858;2023-02-28T08:14:29;96847.63;;;-2.60;100.00
19023;BME280;35226;48.606;8.858;2023-02-28T08:16:55;96850.88;;;-2.54;100.00
19023;BME280;35226;48.606;8.858;2023-02-28T08:19:20;96850.78;;;-2.58;100.00
19023;BME280;35226;48.606;8.858;2023-02-28T08:21:46;96853.16;;;-2.56;100.00
19023;BME280;35226;48.606;8.858;2023-02-28T08:24:11;96846.69;;;-2.52;100.00
19023;BME280;35226;48.606;8.858;2023-02-28T08:26:37;96849.06;;;-2.50;100.00
19023;BME280;35226;48.606;8.858;2023-02-28T08:29:02;96851.75;;;-2.50;100.00
19023;BME280;35226;48.606;8.858;2023-02-28T08:31:28;96851.53;;;-2.45;100.00
19023;BME280;35226;48.606;8.858;2023-02-28T08:33:53;96855.00;;;-2.45;100.00
19023;BME280;35226;48.606;8.858;2023-02-28T08:36:23;96855.44;;;-2.43;100.00
19023;BME280;35226;48.606;8.858;2023-02-28T08:38:48;96860.50;;;-2.41;100.00
19023;BME280;35226;48.606;8.858;2023-02-28T08:41:14;96862.97;;;-2.36;100.00
19023;BME280;35226;48.606;8.858;2023-02-28T08:43:43;96854.50;;;-2.35;100.00
19023;BME280;35226;48.606;8.858;2023-02-28T08:46:11;96858.00;;;-2.34;100.00
19023;BME280;35226;48.606;8.858;2023-02-28T08:48:37;96854.25;;;-2.30;100.00
19023;BME280;35226;48.606;8.858;2023-02-28T08:51:04;96863.28;;;-2.26;100.00
19023;BME280;35226;48.606;8.858;2023-02-28T08:53:31;96868.25;;;-2.28;100.00
19023;BME280;35226;48.606;8.858;2023-02-28T08:56:03;96869.81;;;-2.27;100.00
19023;BME280;35226;48.606;8.858;2023-02-28T08:58:28;96872.25;;;-2.21;100.00
19023;BME280;35226;48.606;8.858;2023-02-28T09:00:54;96871.91;;;-2.20;100.00
19023;BME280;35226;48.606;8.858;2023-02-28T09:03:20;96869.66;;;-2.18;100.00
19023;BME280;35226;48.606;8.858;2023-02-28T09:06:00;96877.66;;;-2.21;100.00
19023;BME280;35226;48.606;8.858;2023-02-28T09:08:28;96870.50;;;-2.14;100.00
19023;BME280;35226;48.606;8.858;2023-02-28T09:10:55;96869.03;;;-2.11;100.00
19023;BME280;35226;48.606;8.858;2023-02-28T09:13:24;96874.13;;;-2.10;100.00
19023;BME280;35226;48.606;8.858;2023-02-28T09:15:50;96874.28;;;-2.03;100.00
19023;BME280;35226;48.606;8.858;2023-02-28T09:18:16;96882.97;;;-1.97;100.00
19023;BME280;35226;48.606;8.858;2023-02-28T09:20:42;96888.44;;;-1.94;100.00
19023;BME280;35226;48.606;8.858;2023-02-28T09:23:09;96878.34;;;-1.97;100.00
19023;BME280;35226;48.606;8.858;2023-02-28T09:25:36;96881.47;;;-1.95;100.00
19023;BME280;35226;48.606;8.858;2023-02-28T09:28:03;96882.34;;;-1.91;100.00
19023;BME280;35226;48.606;8.858;2023-02-28T09:30:29;96875.34;;;-1.92;100.00
19023;BME280;35226;48.606;8.858;2023-02-28T09:32:54;96873.53;;;-1.88;100.00
19023;BME280;35226;48.606;8.858;2023-02-28T09:35:24;96878.94;;;-1.88;100.00
19023;BME280;35226;48.606;8.858;2023-02-28T09:37:52;96876.31;;;-1.84;100.00
19023;BME280;35226;48.606;8.858;2023-02-28T09:40:19;96873.81;;;-1.77;100.00
19023;BME280;35226;48.606;8.858;2023-02-28T09:42:48;96878.59;;;-1.70;100.00
19023;BME280;35226;48.606;8.858;2023-02-28T09:45:28;96872.75;;;-1.72;100.00
19023;BME280;35226;48.606;8.858;2023-02-28T09:47:57;96878.59;;;-1.70;100.00
19023;BME280;35226;48.606;8.858;2023-02-28T09:52:54;96885.06;;;-1.59;100.00
19023;BME280;35226;48.606;8.858;2023-02-28T09:55:39;96886.19;;;-1.60;100.00
19023;BME280;35226;48.606;8.858;2023-02-28T09:58:23;96880.59;;;-1.52;100.00
19023;BME280;35226;48.606;8.858;2023-02-28T10:01:01;96891.53;;;-1.48;100.00
19023;BME280;35226;48.606;8.858;2023-02-28T10:03:49;96887.50;;;-1.38;100.00
19023;BME280;35226;48.606;8.858;2023-02-28T10:06:21;96896.22;;;-1.45;100.00
19023;BME280;35226;48.606;8.858;2023-02-28T10:08:58;96894.06;;;-1.39;100.00
19023;BME280;35226;48.606;8.858;2023-02-28T10:11:27;96899.47;;;-1.39;100.00
19023;BME280;35226;48.606;8.858;2023-02-28T10:16:41;96900.00;;;-1.34;100.00
19023;BME280;35226;48.606;8.858;2023-02-28T10:19:20;96903.25;;;-1.28;100.00
19023;BME280;35226;48.606;8.858;2023-02-28T10:21:59;96902.84;;;-1.27;100.00
19023;BME280;35226;48.606;8.858;2023-02-28T10:24:42;96907.25;;;-1.22;100.00
19023;BME280;35226;48.606;8.858;2023-02-28T10:27:22;96907.41;;;-1.15;100.00
19023;BME280;35226;48.606;8.858;2023-02-28T10:29:54;96908.97;;;-1.14;100.00
19023;BME280;35226;48.606;8.858;2023-02-28T10:32:24;96907.03;;;-1.14;100.00
19023;BME280;35226;48.606;8.858;2023-02-28T10:37:37;96911.50;;;-1.05;100.00
19023;BME280;35226;48.606;8.858;2023-02-28T10:40:05;96906.59;;;-1.00;100.00
19023;BME280;35226;48.606;8.858;2023-02-28T10:42:31;96908.97;;;-0.98;100.00
19023;BME280;35226;48.606;8.858;2023-02-28T10:45:14;96902.75;;;-0.99;100.00
19023;BME280;35226;48.606;8.858;2023-02-28T10:48:02;96906.25;;;-0.98;100.00
19023;BME280;35226;48.606;8.858;2023-02-28T10:55:40;96907.53;;;-0.92;100.00
19023;BME280;35226;48.606;8.858;2023-02-28T10:58:23;96914.59;;;-0.88;100.00
19023;BME280;35226;48.606;8.858;2023-02-28T11:00:51;96907.78;;;-0.82;100.00
19023;BME280;35226;48.606;8.858;2023-02-28T11:03:33;96913.47;;;-0.67;100.00
19023;BME280;35226;48.606;8.858;2023-02-28T11:06:07;96916.28;;;-0.64;100.00
19023;BME280;35226;48.606;8.858;2023-02-28T11:08:34;96913.31;;;-0.59;100.00
19023;BME280;35226;48.606;8.858;2023-02-28T11:11:04;96916.88;;;-0.55;100.00
19023;BME280;35226;48.606;8.858;2023-02-28T11:13:35;96918.44;;;-0.54;100.00
19023;BME280;35226;48.606;8.858;2023-02-28T11:16:08;96914.22;;;-0.51;100.00
19023;BME280;35226;48.606;8.858;2023-02-28T11:18:48;96914.38;;;-0.44;100.00
19023;BME280;35226;48.606;8.858;2023-02-28T11:21:33;96930.38;;;-0.20;100.00
19023;BME280;35226;48.606;8.858;2023-02-28T11:24:19;96921.25;;;-0.31;100.00
19023;BME280;35226;48.606;8.858;2023-02-28T11:26:48;96921.16;;;-0.15;100.00
19023;BME280;35226;48.606;8.858;2023-02-28T11:29:18;96928.28;;;-0.07;100.00
19023;BME280;35226;48.606;8.858;2023-02-28T11:34:29;96919.06;;;0.17;100.00
19023;BME280;35226;48.606;8.858;2023-02-28T11:36:57;96917.25;;;0.24;100.00
19023;BME280;35226;48.606;8.858;2023-02-28T11:39:23;96914.53;;;0.24;100.00
19023;BME280;35226;48.606;8.858;2023-02-28T11:53:01;96901.53;;;0.60;100.00
19023;BME280;35226;48.606;8.858;2023-02-28T11:55:42;96899.97;;;0.59;100.00
19023;BME280;35226;48.606;8.858;2023-02-28T12:03:52;96898.34;;;0.77;100.00
19023;BME280;35226;48.606;8.858;2023-02-28T12:06:25;96888.94;;;0.97;100.00
19023;BME280;35226;48.606;8.858;2023-02-28T12:14:21;96892.78;;;1.23;100.00
19023;BME280;35226;48.606;8.858;2023-02-28T12:16:59;96893.38;;;1.39;100.00
19023;BME280;35226;48.606;8.858;2023-02-28T12:22:30;96884.09;;;1.73;100.00
19023;BME280;35226;48.606;8.858;2023-02-28T12:27:36;96882.84;;;2.01;100.00
19023;BME280;35226;48.606;8.858;2023-02-28T12:35:41;96878.38;;;2.22;99.77
19023;BME280;35226;48.606;8.858;2023-02-28T12:40:52;96877.16;;;2.16;97.70
19023;BME280;35226;48.606;8.858;2023-02-28T12:43:20;96883.72;;;2.12;97.58
19023;BME280;35226;48.606;8.858;2023-02-28T12:45:54;96879.00;;;2.05;95.13
19023;BME280;35226;48.606;8.858;2023-02-28T12:48:46;96872.53;;;2.20;96.06
19023;BME280;35226;48.606;8.858;2023-02-28T12:51:12;96863.22;;;2.25;95.29
19023;BME280;35226;48.606;8.858;2023-02-28T13:04:43;96849.00;;;3.04;91.65
19023;BME280;35226;48.606;8.858;2023-02-28T13:09:59;96846.13;;;3.48;80.56
19023;BME280;35226;48.606;8.858;2023-02-28T13:12:26;96852.03;;;3.57;80.72
19023;BME280;35226;48.606;8.858;2023-02-28T13:15:21;96843.50;;;3.69;78.76
19023;BME280;35226;48.606;8.858;2023-02-28T13:17:54;96850.44;;;3.53;78.35
19023;BME280;35226;48.606;8.858;2023-02-28T13:20:36;96849.69;;;3.52;75.34
19023;BME280;35226;48.606;8.858;2023-02-28T13:23:03;96853.53;;;3.41;77.90
19023;BME280;35226;48.606;8.858;2023-02-28T13:28:01;96847.22;;;3.33;77.62
19023;BME280;35226;48.606;8.858;2023-02-28T13:34:05;96841.88;;;3.54;74.08
19023;BME280;35226;48.606;8.858;2023-02-28T13:36:30;96840.28;;;3.53;77.57
19023;BME280;35226;48.606;8.858;2023-02-28T13:38:57;96846.63;;;3.75;77.92
19023;BME280;35226;48.606;8.858;2023-02-28T13:44:15;96843.16;;;3.92;72.33
19023;BME280;35226;48.606;8.858;2023-02-28T13:51:49;96835.41;;;4.16;69.25
19023;BME280;35226;48.606;8.858;2023-02-28T14:00:07;96841.69;;;4.37;66.06
19023;BME280;35226;48.606;8.858;2023-02-28T14:05:26;96840.94;;;4.69;66.46
19023;BME280;35226;48.606;8.858;2023-02-28T14:07:57;96837.81;;;4.60;64.22
19023;BME280;35226;48.606;8.858;2023-02-28T14:10:31;96847.16;;;4.55;64.28
19023;BME280;35226;48.606;8.858;2023-02-28T14:13:03;96827.63;;;4.67;63.17
19023;BME280;35226;48.606;8.858;2023-02-28T14:16:00;96832.72;;;4.58;64.74
19023;BME280;35226;48.606;8.858;2023-02-28T14:18:34;96842.84;;;4.82;67.08
19023;BME280;35226;48.606;8.858;2023-02-28T14:21:24;96832.22;;;5.20;63.03
19023;BME280;35226;48.606;8.858;2023-02-28T14:34:36;96842.47;;;4.84;62.72
19023;BME280;35226;48.606;8.858;2023-02-28T14:37:05;96840.53;;;4.60;63.84
19023;BME280;35226;48.606;8.858;2023-02-28T14:39:32;96838.97;;;4.59;64.69
19023;BME280;35226;48.606;8.858;2023-02-28T14:41:58;96839.75;;;4.38;63.46
19023;BME280;35226;48.606;8.858;2023-02-28T14:44:28;96835.44;;;4.30;64.26
19023;BME280;35226;48.606;8.858;2023-02-28T14:46:56;96839.75;;;4.31;66.55
19023;BME280;35226;48.606;8.858;2023-02-28T14:49:30;96845.56;;;4.15;67.42
19023;BME280;35226;48.606;8.858;2023-02-28T14:54:43;96846.34;;;4.16;70.30
19023;BME280;35226;48.606;8.858;2023-02-28T14:57:30;96845.94;;;4.06;68.41
19023;BME280;35226;48.606;8.858;2023-02-28T15:00:21;96847.06;;;3.88;68.42
19023;BME280;35226;48.606;8.858;2023-02-28T15:02:47;96850.56;;;3.85;71.39
19023;BME280;35226;48.606;8.858;2023-02-28T15:07:42;96844.69;;;3.79;71.16
19023;BME280;35226;48.606;8.858;2023-02-28T15:10:10;96848.59;;;3.71;71.78
19023;BME280;35226;48.606;8.858;2023-02-28T15:12:39;96843.13;;;3.71;71.75
19023;BME280;35226;48.606;8.858;2023-02-28T15:15:06;96848.91;;;3.59;74.35
19023;BME280;35226;48.606;8.858;2023-02-28T15:17:33;96852.00;;;3.54;74.48